createdAt,value
2022-09-23T00:01:02.974Z,10.05
2022-09-23T00:03:31.647Z,11.30
2022-09-23T00:06:03.861Z,10.35
2022-09-23T00:08:33.126Z,10.23
2022-09-23T00:11:11.837Z,8.57
2022-09-23T00:13:40.906Z,9.93
2022-09-23T00:16:13.574Z,11.35
2022-09-23T00:18:42.209Z,9.88
2022-09-23T00:21:11.653Z,8.27
2022-09-23T00:23:40.579Z,9.48
2022-09-23T00:26:12.045Z,11.40
2022-09-23T00:28:38.971Z,9.38
2022-09-23T00:31:10.977Z,10.40
2022-09-23T00:33:37.997Z,11.50
2022-09-23T00:36:07.677Z,9.20
2022-09-23T00:38:34.634Z,9.43
2022-09-23T00:41:06.200Z,11.93
2022-09-23T00:43:51.666Z,9.30
2022-09-23T00:46:30.446Z,8.00
2022-09-23T00:49:01.462Z,12.10
2022-09-23T00:51:34.652Z,9.25
2022-09-23T00:54:02.745Z,8.52
2022-09-23T00:56:31.967Z,9.05
2022-09-23T00:59:00.903Z,8.98
2022-09-23T01:01:27.706Z,9.52
2022-09-23T01:03:56.359Z,9.93
2022-09-23T01:06:24.723Z,10.65
2022-09-23T01:08:52.526Z,9.68
2022-09-23T01:11:31.432Z,10.35
2022-09-23T01:14:24.336Z,9.32
2022-09-23T01:17:08.898Z,11.63
2022-09-23T01:20:06.751Z,9.45
2022-09-23T01:22:51.110Z,9.77
2022-09-23T01:25:34.644Z,10.23
2022-09-23T01:28:16.384Z,9.82
2022-09-23T01:30:44.921Z,10.07
2022-09-23T01:33:29.269Z,11.80
2022-09-23T01:36:09.979Z,10.60
2022-09-23T01:38:40.664Z,11.95
2022-09-23T01:41:23.004Z,10.43
2022-09-23T01:43:59.947Z,11.02
2022-09-23T01:46:42.629Z,12.45
2022-09-23T01:49:40.032Z,11.60
2022-09-23T01:52:18.173Z,13.65
2022-09-23T01:55:09.308Z,11.32
2022-09-23T01:57:45.253Z,11.30
2022-09-23T02:00:16.519Z,14.98
2022-09-23T02:02:52.274Z,11.70
2022-09-23T02:05:26.016Z,13.88
2022-09-23T02:08:08.806Z,12.88
2022-09-23T02:10:44.588Z,12.48
2022-09-23T02:13:30.166Z,16.20
2022-09-23T02:16:03.417Z,12.07
2022-09-23T02:18:42.139Z,12.00
2022-09-23T02:21:09.931Z,13.05
2022-09-23T02:23:42.456Z,13.23
2022-09-23T02:26:20.306Z,13.13
2022-09-23T02:28:52.413Z,12.23
2022-09-23T02:31:19.975Z,11.18
2022-09-23T02:33:57.715Z,11.85
2022-09-23T02:36:32.844Z,11.70
2022-09-23T02:39:05.144Z,13.18
2022-09-23T02:41:51.947Z,13.02
2022-09-23T02:44:20.093Z,14.80
2022-09-23T02:46:47.525Z,12.65
2022-09-23T02:49:32.678Z,12.32
2022-09-23T02:52:04.834Z,11.55
2022-09-23T02:54:33.544Z,12.18
2022-09-23T02:57:03.121Z,13.10
2022-09-23T02:59:30.623Z,11.70
2022-09-23T03:02:21.752Z,11.50
2022-09-23T03:05:11.351Z,12.47
2022-09-23T03:07:56.777Z,12.60
2022-09-23T03:10:55.383Z,11.45
2022-09-23T03:13:48.638Z,13.75
2022-09-23T03:16:33.731Z,14.45
2022-09-23T03:19:23.353Z,16.67
2022-09-23T03:22:13.038Z,14.40
2022-09-23T03:24:44.861Z,16.08
2022-09-23T03:27:18.748Z,16.23
2022-09-23T03:29:48.598Z,17.38
2022-09-23T03:32:19.387Z,19.55
2022-09-23T03:34:50.671Z,19.02
2022-09-23T03:37:40.685Z,20.02
2022-09-23T03:40:22.399Z,20.35
2022-09-23T03:42:49.234Z,18.85
2022-09-23T03:45:20.252Z,18.25
2022-09-23T03:47:49.450Z,19.70
2022-09-23T03:50:17.354Z,20.10
2022-09-23T03:52:44.516Z,19.38
2022-09-23T03:55:11.804Z,17.20
2022-09-23T03:57:39.667Z,15.98
2022-09-23T04:00:09.642Z,15.05
2022-09-23T04:02:36.395Z,14.85
2022-09-23T04:05:06.001Z,14.90
2022-09-23T04:07:32.746Z,16.00
2022-09-23T04:09:59.547Z,15.60
2022-09-23T04:12:28.684Z,14.48
2022-09-23T04:14:55.617Z,15.10
2022-09-23T04:17:22.382Z,13.75
2022-09-23T04:19:49.076Z,13.52
2022-09-23T04:22:15.796Z,14.40
2022-09-23T04:24:42.481Z,14.88
2022-09-23T04:27:09.218Z,14.35
2022-09-23T04:29:35.944Z,13.18
2022-09-23T04:32:02.830Z,13.60
2022-09-23T04:34:29.506Z,15.82
2022-09-23T04:36:56.349Z,13.85
2022-09-23T04:39:23.084Z,15.18
2022-09-23T04:41:49.804Z,14.45
2022-09-23T04:44:17.147Z,13.90
2022-09-23T04:46:48.091Z,14.15
2022-09-23T04:49:16.040Z,19.17
2022-09-23T04:51:43.708Z,16.70
2022-09-23T04:54:11.786Z,15.13
2022-09-23T04:56:41.172Z,17.95
2022-09-23T04:59:08.725Z,14.13
2022-09-23T05:01:36.334Z,16.95
2022-09-23T05:04:06.272Z,12.45
2022-09-23T05:06:39.707Z,13.70
2022-09-23T05:09:08.557Z,13.13
2022-09-23T05:11:36.056Z,12.23
2022-09-23T05:14:04.940Z,15.07
2022-09-23T05:16:31.730Z,13.65
2022-09-23T05:19:01.004Z,14.05
2022-09-23T05:21:31.320Z,18.35
2022-09-23T05:24:01.265Z,13.00
2022-09-23T05:26:30.671Z,13.10
2022-09-23T05:28:58.722Z,12.80
2022-09-23T05:31:30.040Z,13.07
2022-09-23T05:33:59.516Z,12.65
2022-09-23T05:36:27.890Z,13.93
2022-09-23T05:38:56.953Z,13.43
2022-09-23T05:41:26.427Z,15.45
2022-09-23T05:43:54.893Z,14.70
2022-09-23T05:46:24.384Z,15.32
2022-09-23T05:48:51.351Z,14.02
2022-09-23T05:51:27.502Z,12.43
2022-09-23T05:53:58.315Z,13.65
2022-09-23T05:56:28.094Z,14.65
2022-09-23T05:58:57.503Z,13.73
2022-09-23T06:01:33.406Z,12.63
2022-09-23T06:04:01.682Z,14.48
2022-09-23T06:06:30.869Z,13.15
2022-09-23T06:08:59.148Z,14.00
2022-09-23T06:11:26.546Z,13.90
2022-09-23T06:14:01.292Z,12.88
2022-09-23T06:16:30.237Z,12.90
2022-09-23T06:18:58.860Z,12.55
2022-09-23T06:21:28.465Z,14.45
2022-09-23T06:23:57.275Z,16.45
2022-09-23T06:26:24.132Z,17.95
2022-09-23T06:28:50.963Z,13.00
2022-09-23T06:31:17.830Z,14.63
2022-09-23T06:33:46.085Z,16.40
2022-09-23T06:36:28.170Z,16.23
2022-09-23T06:39:02.333Z,14.77
2022-09-23T06:41:29.507Z,15.98
2022-09-23T06:43:56.187Z,17.55
2022-09-23T06:46:23.070Z,15.63
2022-09-23T06:48:51.078Z,15.25
2022-09-23T06:51:21.757Z,18.67
2022-09-23T06:53:49.330Z,17.02
2022-09-23T06:56:17.867Z,19.10
2022-09-23T06:58:44.698Z,16.48
2022-09-23T07:01:16.112Z,21.40
2022-09-23T07:03:47.138Z,19.92
2022-09-23T07:06:14.489Z,19.92
2022-09-23T07:08:44.280Z,20.92
2022-09-23T07:11:13.450Z,23.10
2022-09-23T07:13:42.310Z,22.65
2022-09-23T07:16:10.893Z,22.20
2022-09-23T07:18:38.260Z,21.17
2022-09-23T07:21:15.233Z,24.83
2022-09-23T07:23:43.310Z,18.60
2022-09-23T07:26:10.450Z,18.75
2022-09-23T07:28:38.442Z,22.30
2022-09-23T07:31:11.081Z,21.35
2022-09-23T07:33:48.256Z,21.35
2022-09-23T07:36:19.212Z,20.55
2022-09-23T07:38:47.426Z,22.15
2022-09-23T07:41:18.048Z,21.38
2022-09-23T07:43:46.106Z,19.75
2022-09-23T07:46:16.857Z,20.85
2022-09-23T07:48:44.697Z,17.27
2022-09-23T07:51:20.927Z,19.35
2022-09-23T07:53:52.999Z,21.33
2022-09-23T07:56:22.587Z,17.40
2022-09-23T07:59:04.335Z,15.65
2022-09-23T08:04:11.505Z,20.03
2022-09-23T08:06:46.854Z,15.73
2022-09-23T08:09:14.479Z,19.30
2022-09-23T08:11:42.082Z,19.70
2022-09-23T08:14:12.846Z,18.88
2022-09-23T08:16:40.930Z,16.98
2022-09-23T08:19:08.503Z,16.15
2022-09-23T08:21:39.194Z,22.08
2022-09-23T08:24:13.753Z,21.43
2022-09-23T08:26:48.148Z,14.98
2022-09-23T08:29:21.535Z,20.27
2022-09-23T08:31:49.539Z,16.60
2022-09-23T08:34:20.535Z,17.23
2022-09-23T08:36:47.515Z,16.88
2022-09-23T08:39:19.294Z,16.00
2022-09-23T08:41:46.069Z,13.75
2022-09-23T08:44:26.697Z,19.23
2022-09-23T08:47:11.297Z,14.07
2022-09-23T08:50:07.221Z,17.17
2022-09-23T08:53:02.819Z,16.48
2022-09-23T08:55:41.978Z,14.15
2022-09-23T08:58:46.152Z,15.10
2022-09-23T09:01:31.734Z,16.65
2022-09-23T09:04:18.133Z,12.90
2022-09-23T09:06:53.537Z,16.77
2022-09-23T09:09:30.767Z,14.95
2022-09-23T09:12:11.157Z,13.07
2022-09-23T09:14:50.167Z,13.43
2022-09-23T09:17:31.702Z,13.57
2022-09-23T09:20:40.432Z,16.35
2022-09-23T09:23:33.045Z,12.98
2022-09-23T09:26:02.183Z,13.05
2022-09-23T09:28:48.929Z,17.65
2022-09-23T09:31:34.662Z,13.85
2022-09-23T09:34:27.974Z,19.77
2022-09-23T09:37:41.844Z,17.25
2022-09-23T09:40:13.122Z,16.02
2022-09-23T09:42:41.682Z,16.33
2022-09-23T09:45:14.876Z,15.60
2022-09-23T09:48:02.307Z,16.88
2022-09-23T09:50:49.130Z,15.40
2022-09-23T09:53:32.143Z,15.55
2022-09-23T09:56:06.043Z,18.00
2022-09-23T09:58:54.893Z,19.00
2022-09-23T10:01:28.624Z,14.30
2022-09-23T10:04:00.409Z,16.63
2022-09-23T10:06:36.020Z,13.00
2022-09-23T10:09:08.162Z,16.35
2022-09-23T10:11:38.389Z,14.23
2022-09-23T10:14:10.102Z,16.73
2022-09-23T10:16:37.159Z,16.13
2022-09-23T10:19:12.334Z,12.55
2022-09-23T10:21:42.320Z,15.25
2022-09-23T10:24:22.458Z,14.95
2022-09-23T10:27:08.441Z,19.55
2022-09-23T10:29:50.982Z,16.45
2022-09-23T10:32:37.443Z,15.15
2022-09-23T10:35:08.977Z,15.15
2022-09-23T10:40:40.321Z,15.65
2022-09-23T10:43:39.260Z,14.98
2022-09-23T10:46:30.084Z,12.77
2022-09-23T10:49:31.040Z,18.50
2022-09-23T10:52:25.557Z,14.47
2022-09-23T10:55:17.106Z,15.50
2022-09-23T10:57:46.744Z,12.57
2022-09-23T11:00:59.621Z,17.48
2022-09-23T11:03:48.841Z,14.20
2022-09-23T11:06:27.186Z,13.07
2022-09-23T11:09:18.496Z,13.55
2022-09-23T11:11:59.001Z,18.58
2022-09-23T11:15:00.103Z,17.83
2022-09-23T11:17:32.937Z,14.80
2022-09-23T11:20:23.314Z,16.13
2022-09-23T11:23:11.155Z,13.30
2022-09-23T11:26:05.073Z,13.95
2022-09-23T11:28:53.849Z,18.17
2022-09-23T11:31:59.712Z,15.15
2022-09-23T11:34:59.772Z,15.25
2022-09-23T11:37:30.340Z,16.25
2022-09-23T11:40:04.833Z,15.43
2022-09-23T11:42:40.551Z,13.82
2022-09-23T11:45:17.041Z,10.70
2022-09-23T11:48:05.842Z,11.27
2022-09-23T11:50:58.777Z,13.57
2022-09-23T11:53:47.662Z,13.02
2022-09-23T11:56:36.418Z,12.95
2022-09-23T11:59:36.589Z,9.18
2022-09-23T12:02:20.629Z,16.10
2022-09-23T12:05:10.658Z,11.52
2022-09-23T12:07:55.792Z,10.88
2022-09-23T12:10:59.226Z,12.52
2022-09-23T12:14:01.338Z,15.18
2022-09-23T12:16:53.785Z,12.98
2022-09-23T12:19:47.625Z,11.65
2022-09-23T12:22:33.310Z,14.45
2022-09-23T12:25:43.366Z,11.85
2022-09-23T12:28:18.664Z,10.30
2022-09-23T12:30:47.093Z,12.88
2022-09-23T12:33:28.403Z,11.30
2022-09-23T12:36:02.394Z,17.35
2022-09-23T12:38:41.149Z,15.27
2022-09-23T12:41:27.127Z,14.40
2022-09-23T12:43:59.111Z,15.10
2022-09-23T12:46:27.591Z,11.27
2022-09-23T12:48:58.115Z,14.95
2022-09-23T12:51:26.454Z,14.07
2022-09-23T12:54:04.795Z,13.27
2022-09-23T12:56:34.451Z,15.52
2022-09-23T12:59:16.546Z,13.70
2022-09-23T13:01:44.321Z,14.85
2022-09-23T13:04:51.792Z,13.98
2022-09-23T13:07:25.382Z,12.25
2022-09-23T13:09:56.291Z,13.32
2022-09-23T13:12:34.502Z,12.95
2022-09-23T13:15:11.808Z,12.27
2022-09-23T13:17:40.022Z,10.18
2022-09-23T13:20:33.002Z,14.98
2022-09-23T13:23:07.494Z,10.90
2022-09-23T13:25:43.518Z,13.23
2022-09-23T13:28:41.984Z,14.45
2022-09-23T13:31:16.743Z,11.75
2022-09-23T13:33:51.555Z,11.90
2022-09-23T13:36:19.647Z,13.13
2022-09-23T13:38:46.949Z,11.88
2022-09-23T13:41:28.564Z,11.57
2022-09-23T13:44:00.244Z,12.25
2022-09-23T13:46:31.295Z,15.25
2022-09-23T13:48:58.653Z,13.68
2022-09-23T13:51:30.839Z,14.68
2022-09-23T13:53:59.927Z,15.45
2022-09-23T13:56:29.628Z,14.20
2022-09-23T13:59:23.693Z,15.68
2022-09-23T14:01:52.603Z,15.80
2022-09-23T14:04:26.027Z,17.95
2022-09-23T14:06:54.259Z,17.75
2022-09-23T14:09:27.484Z,17.58
2022-09-23T14:11:56.505Z,16.65
2022-09-23T14:14:23.791Z,16.73
2022-09-23T14:16:51.992Z,17.25
2022-09-23T14:19:21.371Z,15.63
2022-09-23T14:21:50.652Z,18.15
2022-09-23T14:24:21.722Z,20.60
2022-09-23T14:27:06.917Z,19.70
2022-09-23T14:29:42.481Z,19.13
2022-09-23T14:32:13.657Z,21.17
2022-09-23T14:34:45.061Z,16.70
2022-09-23T14:37:43.774Z,19.00
2022-09-23T14:40:30.785Z,21.70
2022-09-23T14:43:15.883Z,18.65
2022-09-23T14:45:49.929Z,18.27
2022-09-23T14:48:22.205Z,16.77
2022-09-23T14:51:00.943Z,20.42
2022-09-23T14:53:45.705Z,16.42
2022-09-23T14:56:17.737Z,17.58
2022-09-23T14:58:52.333Z,20.20
2022-09-23T15:01:32.190Z,18.13
2022-09-23T15:04:12.121Z,21.58
2022-09-23T15:06:42.144Z,19.75
2022-09-23T15:09:15.566Z,18.73
2022-09-23T15:11:42.370Z,25.45
2022-09-23T15:14:36.134Z,23.52
2022-09-23T15:17:02.945Z,21.15
2022-09-23T15:19:38.401Z,22.02
2022-09-23T15:22:11.230Z,26.30
2022-09-23T15:24:44.943Z,24.45
2022-09-23T15:27:25.903Z,26.00
2022-09-23T15:29:54.107Z,23.88
2022-09-23T15:32:24.900Z,27.42
2022-09-23T15:34:56.368Z,27.63
2022-09-23T15:39:49.782Z,22.27
2022-09-23T15:42:18.220Z,24.10
2022-09-23T15:44:48.982Z,18.25
2022-09-23T15:47:22.506Z,19.52
2022-09-23T15:49:49.373Z,18.13
2022-09-23T15:52:16.396Z,13.30
2022-09-23T15:54:43.872Z,13.20
2022-09-23T15:57:13.190Z,13.38
2022-09-23T15:59:40.954Z,13.98
2022-09-23T16:02:20.274Z,15.15
2022-09-23T16:04:50.484Z,11.23
2022-09-23T16:07:19.701Z,13.20
2022-09-23T16:09:48.893Z,11.10
2022-09-23T16:12:18.715Z,10.05
2022-09-23T16:14:47.842Z,10.88
2022-09-23T16:17:17.108Z,10.68
2022-09-23T16:19:43.865Z,8.90
2022-09-23T16:22:17.798Z,11.18
2022-09-23T16:24:47.561Z,10.90
2022-09-23T16:27:19.060Z,9.75
2022-09-23T16:32:18.975Z,9.32
2022-09-23T16:34:51.053Z,11.00
2022-09-23T16:37:18.472Z,10.05
2022-09-23T16:39:47.373Z,8.93
2022-09-23T16:42:14.087Z,10.20
2022-09-23T16:44:41.578Z,8.77
2022-09-23T16:47:08.725Z,12.57
2022-09-23T16:49:35.600Z,9.38
2022-09-23T16:52:02.462Z,10.38
2022-09-23T16:54:31.612Z,10.10
2022-09-23T16:57:00.572Z,10.25
2022-09-23T16:59:50.457Z,10.35
2022-09-23T17:02:35.655Z,10.48
2022-09-23T17:05:06.357Z,12.50
2022-09-23T17:07:33.134Z,10.67
2022-09-23T17:10:06.287Z,10.50
2022-09-23T17:12:35.060Z,12.13
2022-09-23T17:15:07.168Z,11.50
2022-09-23T17:17:42.900Z,10.95
2022-09-23T17:20:13.090Z,15.32
2022-09-23T17:22:41.322Z,15.48
2022-09-23T17:25:09.340Z,11.13
2022-09-23T17:27:39.113Z,13.50
2022-09-23T17:30:09.327Z,14.02
2022-09-23T17:32:38.220Z,12.30
2022-09-23T17:35:09.857Z,12.77
2022-09-23T17:37:37.336Z,14.82
2022-09-23T17:40:05.115Z,14.68
2022-09-23T17:42:35.648Z,15.27
2022-09-23T17:45:08.628Z,16.45
2022-09-23T17:47:39.483Z,16.42
2022-09-23T17:50:08.306Z,18.70
2022-09-23T17:52:38.068Z,18.50
2022-09-23T17:55:08.801Z,21.27
2022-09-23T17:57:37.992Z,21.50
2022-09-23T18:00:05.293Z,25.45
2022-09-23T18:02:32.240Z,29.35
2022-09-23T18:04:59.037Z,33.67
2022-09-23T18:07:29.549Z,33.25
2022-09-23T18:09:58.620Z,32.88
2022-09-23T18:12:25.365Z,34.50
2022-09-23T18:14:52.176Z,38.80
2022-09-23T18:17:18.952Z,24.30
2022-09-23T18:19:49.112Z,20.23
2022-09-23T18:22:18.278Z,20.33
2022-09-23T18:24:45.636Z,20.88
2022-09-23T18:27:12.548Z,18.77
2022-09-23T18:29:39.288Z,19.52
2022-09-23T18:32:12.123Z,19.45
2022-09-23T18:34:43.260Z,21.23
2022-09-23T18:37:15.650Z,19.20
2022-09-23T18:39:43.326Z,20.30
2022-09-23T18:42:13.105Z,20.58
2022-09-23T18:44:42.785Z,17.02
2022-09-23T18:47:29.435Z,19.77
2022-09-23T18:50:14.632Z,18.13
2022-09-23T18:52:44.131Z,17.00
2022-09-23T18:55:13.682Z,18.40
2022-09-23T18:57:42.945Z,16.13
2022-09-23T19:00:10.287Z,15.40
2022-09-23T19:02:37.044Z,16.20
2022-09-23T19:05:07.217Z,17.17
2022-09-23T19:07:36.049Z,13.40
2022-09-23T19:10:05.412Z,12.73
2022-09-23T19:12:34.650Z,17.73
2022-09-23T19:15:04.682Z,15.65
2022-09-23T19:17:33.956Z,14.20
2022-09-23T19:20:00.817Z,13.35
2022-09-23T19:22:27.627Z,14.68
2022-09-23T19:25:00.183Z,13.30
2022-09-23T19:27:27.101Z,14.93
2022-09-23T19:29:56.829Z,14.32
2022-09-23T19:32:26.710Z,12.52
2022-09-23T19:34:57.490Z,10.88
2022-09-23T19:37:26.744Z,10.63
2022-09-23T19:39:53.602Z,12.65
2022-09-23T19:42:20.336Z,12.43
2022-09-23T19:44:50.240Z,12.35
2022-09-23T19:47:17.529Z,11.55
2022-09-23T19:49:44.369Z,11.05
2022-09-23T19:52:12.019Z,10.90
2022-09-23T19:54:41.711Z,11.93
2022-09-23T19:57:09.116Z,11.18
2022-09-23T19:59:39.182Z,12.93
2022-09-23T20:02:11.760Z,13.80
2022-09-23T20:04:38.726Z,10.35
2022-09-23T20:07:05.407Z,11.13
2022-09-23T20:09:33.795Z,10.85
2022-09-23T20:12:02.121Z,10.60
2022-09-23T20:14:31.623Z,12.20
2022-09-23T20:17:00.203Z,11.73
2022-09-23T20:19:27.021Z,12.52
2022-09-23T20:22:13.734Z,13.15
2022-09-23T20:24:42.787Z,11.48
2022-09-23T20:27:12.020Z,12.98
2022-09-23T20:29:38.778Z,12.90
2022-09-23T20:32:06.028Z,16.40
2022-09-23T20:34:34.903Z,14.60
2022-09-23T20:37:01.774Z,15.70
2022-09-23T20:39:30.623Z,15.27
2022-09-23T20:41:57.597Z,19.45
2022-09-23T20:44:25.059Z,19.45
2022-09-23T20:46:55.743Z,20.88
2022-09-23T20:49:22.615Z,25.03
2022-09-23T20:51:50.240Z,22.80
2022-09-23T20:54:20.952Z,22.85
2022-09-23T20:56:48.004Z,27.33
2022-09-23T20:59:14.973Z,28.42
2022-09-23T21:01:42.810Z,26.90
2022-09-23T21:04:10.466Z,27.02
2022-09-23T21:06:37.890Z,31.23
2022-09-23T21:09:06.166Z,37.17
2022-09-23T21:11:32.867Z,31.67
2022-09-23T21:14:01.125Z,34.97
2022-09-23T21:16:30.227Z,32.25
2022-09-23T21:18:58.303Z,32.88
2022-09-23T21:21:25.278Z,37.75
2022-09-23T21:23:52.129Z,34.15
2022-09-23T21:26:24.632Z,36.17
2022-09-23T21:28:57.585Z,35.53
2022-09-23T21:31:33.779Z,41.80
2022-09-23T21:34:08.535Z,40.40
2022-09-23T21:36:41.407Z,46.15
2022-09-23T21:39:10.353Z,42.33
2022-09-23T21:41:37.708Z,40.58
2022-09-23T21:44:07.766Z,41.17
2022-09-23T21:46:35.096Z,43.22
2022-09-23T21:49:03.644Z,43.28
2022-09-23T21:51:38.796Z,39.53
2022-09-23T21:54:07.237Z,42.67
2022-09-23T21:56:36.338Z,42.90
2022-09-23T21:59:04.088Z,42.90
2022-09-23T22:01:35.149Z,39.90
2022-09-23T22:04:15.316Z,43.90
2022-09-23T22:06:44.497Z,42.17
2022-09-23T22:09:14.498Z,41.08
2022-09-23T22:12:00.286Z,40.00
2022-09-23T22:14:27.722Z,39.08
2022-09-23T22:16:57.351Z,36.45
2022-09-23T22:19:32.808Z,34.60
2022-09-23T22:22:00.048Z,32.88
2022-09-23T22:24:26.730Z,30.55
2022-09-23T22:26:53.684Z,32.53
2022-09-23T22:29:42.501Z,27.30
2022-09-23T22:32:30.045Z,28.33
2022-09-23T22:34:57.526Z,29.38
2022-09-23T22:37:27.232Z,27.98
2022-09-23T22:39:54.699Z,29.58
2022-09-23T22:42:22.404Z,28.98
2022-09-23T22:44:50.080Z,32.42
2022-09-23T22:47:19.922Z,27.33
2022-09-23T22:49:49.431Z,33.45
2022-09-23T22:52:21.168Z,28.58
2022-09-23T22:54:48.291Z,28.27
2022-09-23T22:57:17.184Z,29.92
2022-09-23T22:59:47.996Z,31.77
2022-09-23T23:02:16.628Z,31.67
2022-09-23T23:04:45.183Z,30.60
2022-09-23T23:07:14.002Z,29.85
2022-09-23T23:09:41.146Z,28.42
2022-09-23T23:12:08.088Z,26.48
2022-09-23T23:14:36.346Z,27.50
2022-09-23T23:17:07.220Z,27.27
2022-09-23T23:19:35.078Z,30.85
2022-09-23T23:22:02.086Z,28.15
2022-09-23T23:24:28.971Z,28.52
2022-09-23T23:26:55.848Z,27.55
2022-09-23T23:29:23.429Z,28.52
2022-09-23T23:31:50.864Z,26.00
2022-09-23T23:34:20.276Z,30.10
2022-09-23T23:36:54.445Z,29.50
2022-09-23T23:39:25.694Z,26.75
2022-09-23T23:41:54.186Z,27.08
2022-09-23T23:44:21.241Z,27.13
2022-09-23T23:46:49.215Z,27.73
2022-09-23T23:49:16.270Z,31.48
2022-09-23T23:51:43.024Z,30.30
2022-09-23T23:54:11.665Z,27.77
2022-09-23T23:56:40.619Z,26.48
2022-09-23T23:59:07.474Z,28.27
